Time;durP1;ratioP1;P1;durP2;ratioP2;P2;SDS_P1;SDS_P2;PMS_P1;PMS_P2;Temp;Humidity;BMP_temperature;BMP_pressure;BME280_temperature;BME280_humidity;BME280_pressure;Samples;Min_cycle;Max_cycle;Signal;HPM_P1;HPM_P2
2022/09/06 00:02:15;;;;;;;14.35;12.95;;;21.00;87.50;;;;;;5051472;28;20036;-54
2022/09/06 00:05:02;;;;;;;14.15;12.77;;;20.90;87.70;;;;;;5052717;28;20052;-51
2022/09/06 00:07:48;;;;;;;13.00;11.80;;;20.90;87.90;;;;;;5052653;28;20063;-51
2022/09/06 00:10:34;;;;;;;12.02;10.98;;;20.90;87.70;;;;;;5066741;28;20062;-49
2022/09/06 00:13:20;;;;;;;13.65;12.27;;;20.90;87.90;;;;;;5080869;28;20032;-46
2022/09/06 00:16:08;;;;;;;13.40;12.20;;;20.90;87.60;;;;;;5072470;28;20033;-53
2022/09/06 00:18:54;;;;;;;12.85;11.65;;;20.70;87.90;;;;;;5066283;28;20122;-53
2022/09/06 00:21:40;;;;;;;11.88;10.75;;;20.70;88.10;;;;;;5070333;28;20029;-54
2022/09/06 00:24:26;;;;;;;12.10;11.00;;;20.70;88.20;;;;;;5072507;28;20039;-47
2022/09/06 00:27:12;;;;;;;12.00;10.90;;;20.70;88.00;;;;;;5072297;28;20036;-49
2022/09/06 00:29:58;;;;;;;12.18;10.98;;;20.60;87.90;;;;;;5070317;28;20024;-50
2022/09/06 00:32:44;;;;;;;11.70;10.60;;;20.60;87.90;;;;;;5071201;28;20033;-50
2022/09/06 00:35:30;;;;;;;11.10;10.05;;;20.60;88.20;;;;;;5082712;28;20116;-47
2022/09/06 00:38:16;;;;;;;11.80;10.70;;;20.60;88.00;;;;;;5076254;28;20029;-50
2022/09/06 00:41:04;;;;;;;11.88;10.77;;;20.40;88.30;;;;;;5057815;28;20412;-52
2022/09/06 00:43:50;;;;;;;11.00;9.98;;;20.40;88.50;;;;;;5076510;28;20025;-51
2022/09/06 00:46:40;;;;;;;11.23;10.00;;;20.40;88.40;;;;;;5072479;28;20031;-48
2022/09/06 00:49:33;;;;;;;12.25;10.52;;;20.50;88.20;;;;;;5071303;28;20681;-53
2022/09/06 00:52:20;;;;;;;11.32;10.13;;;20.60;87.90;;;;;;5070019;28;20036;-46
2022/09/06 00:55:07;;;;;;;11.23;10.23;;;20.60;87.80;;;;;;5070884;28;20052;-51
2022/09/06 00:57:54;;;;;;;12.32;11.18;;;20.60;87.80;;;;;;5072557;28;20017;-53
2022/09/06 01:00:40;;;;;;;13.05;11.65;;;20.50;87.90;;;;;;5071459;28;20016;-54
2022/09/06 01:03:27;;;;;;;12.50;10.95;;;20.60;87.80;;;;;;5064967;28;20028;-53
2022/09/06 01:06:16;;;;;;;12.10;10.90;;;20.60;87.50;;;;;;5071231;28;20032;-53
2022/09/06 01:09:25;;;;;;;10.90;9.80;;;20.60;87.40;;;;;;5088209;28;20028;-47
2022/09/06 01:12:20;;;;;;;11.85;10.70;;;20.60;87.30;;;;;;5078732;28;20081;-54
2022/09/06 01:15:19;;;;;;;10.75;9.73;;;20.60;87.30;;;;;;5072241;28;20405;-48
2022/09/06 01:18:22;;;;;;;11.00;10.00;;;20.70;87.30;;;;;;5077195;28;20771;-57
2022/09/06 01:21:26;;;;;;;10.73;9.65;;;20.60;87.20;;;;;;5075723;28;20667;-56
2022/09/06 01:24:48;;;;;;;11.83;10.43;;;20.50;87.50;;;;;;5088118;28;20032;-49
2022/09/06 01:28:02;;;;;;;11.45;10.38;;;20.50;87.30;;;;;;5076235;28;20100;-53
2022/09/06 01:31:03;;;;;;;10.57;9.63;;;20.40;87.50;;;;;;5089995;28;20032;-54
2022/09/06 01:34:04;;;;;;;10.30;9.30;;;20.50;87.50;;;;;;5072260;28;20029;-49
2022/09/06 01:37:10;;;;;;;10.75;9.75;;;20.50;87.50;;;;;;5070766;28;20029;-50
2022/09/06 01:39:56;;;;;;;11.70;10.48;;;20.40;87.40;;;;;;5082704;28;20016;-52
2022/09/06 01:42:45;;;;;;;14.15;12.77;;;20.30;88.00;;;;;;5083638;28;20119;-51
2022/09/06 01:45:59;;;;;;;13.05;11.82;;;20.40;88.00;;;;;;5070772;28;20024;-47
2022/09/06 01:49:02;;;;;;;11.70;10.45;;;20.40;87.90;;;;;;5052254;28;20025;-48
2022/09/06 01:52:17;;;;;;;11.75;10.52;;;20.40;87.90;;;;;;5069243;28;20500;-49
2022/09/06 01:55:30;;;;;;;11.90;10.90;;;20.50;87.70;;;;;;5046042;28;20548;-51
2022/09/06 01:58:41;;;;;;;12.05;10.43;;;20.50;87.90;;;;;;5069586;28;20255;-50
2022/09/06 02:01:36;;;;;;;11.95;10.80;;;20.50;87.90;;;;;;5070332;28;20074;-53
2022/09/06 02:04:48;;;;;;;13.95;11.38;;;20.50;87.70;;;;;;5074406;28;20032;-54
2022/09/06 02:07:37;;;;;;;12.05;10.90;;;20.40;87.70;;;;;;5087258;28;20414;-55
2022/09/06 02:10:47;;;;;;;11.30;10.10;;;20.20;88.30;;;;;;5070335;28;20668;-55
2022/09/06 02:13:39;;;;;;;14.27;12.48;;;20.30;88.40;;;;;;5081225;28;20388;-52
2022/09/06 02:16:29;;;;;;;13.32;12.02;;;20.20;88.40;;;;;;5076150;28;20058;-53
2022/09/06 02:19:30;;;;;;;12.98;11.68;;;20.10;88.70;;;;;;5073433;28;20029;-52
2022/09/06 02:22:20;;;;;;;12.57;11.35;;;20.00;89.00;;;;;;5070089;28;20524;-55
2022/09/06 02:25:10;;;;;;;12.70;11.50;;;19.90;89.20;;;;;;5089733;28;20039;-52
2022/09/06 02:27:56;;;;;;;12.65;10.48;;;19.70;89.40;;;;;;5084779;28;20017;-53
2022/09/06 02:30:47;;;;;;;13.50;11.23;;;19.70;90.00;;;;;;5069510;28;20028;-53
2022/09/06 02:33:34;;;;;;;11.70;10.35;;;19.60;89.90;;;;;;5078910;28;20472;-52
2022/09/06 02:36:20;;;;;;;11.60;10.57;;;19.70;89.70;;;;;;5090947;28;20040;-52
2022/09/06 02:39:06;;;;;;;11.95;10.75;;;19.70;89.70;;;;;;5061573;28;20035;-50
2022/09/06 02:41:52;;;;;;;10.73;9.82;;;19.70;89.60;;;;;;5069430;28;20025;-49
2022/09/06 02:44:39;;;;;;;16.75;15.25;;;19.80;89.60;;;;;;5086841;28;20043;-62
2022/09/06 02:47:25;;;;;;;15.20;13.55;;;19.80;89.40;;;;;;5090641;28;20024;-51
2022/09/06 02:50:12;;;;;;;12.82;11.50;;;19.80;89.30;;;;;;5049998;28;20456;-52
2022/09/06 02:53:08;;;;;;;11.98;10.77;;;19.70;89.20;;;;;;5041074;28;20065;-52
2022/09/06 02:55:55;;;;;;;14.13;10.90;;;19.70;89.20;;;;;;5089644;28;20028;-52
2022/09/06 02:58:41;;;;;;;13.45;11.60;;;19.60;90.00;;;;;;5062289;28;20389;-50
2022/09/06 03:01:27;;;;;;;11.27;10.25;;;19.60;89.30;;;;;;5069079;28;20021;-51
2022/09/06 03:04:13;;;;;;;11.98;10.13;;;19.60;89.30;;;;;;5086070;28;20028;-53
2022/09/06 03:06:59;;;;;;;13.07;10.65;;;19.60;89.40;;;;;;5090515;28;20081;-51
2022/09/06 03:09:45;;;;;;;11.48;10.38;;;19.60;89.60;;;;;;5050317;28;20413;-51
2022/09/06 03:12:31;;;;;;;11.02;9.93;;;19.60;89.30;;;;;;5040555;28;20021;-56
2022/09/06 03:15:18;;;;;;;11.68;10.45;;;19.60;89.10;;;;;;5089192;28;20028;-54
2022/09/06 03:18:04;;;;;;;11.00;9.90;;;19.60;89.20;;;;;;5088358;28;20039;-54
2022/09/06 03:20:51;;;;;;;11.75;10.70;;;19.60;89.10;;;;;;5073356;28;20700;-48
2022/09/06 03:23:38;;;;;;;11.27;10.27;;;19.40;89.60;;;;;;5083180;28;20032;-52
2022/09/06 03:26:25;;;;;;;10.27;9.38;;;19.40;89.80;;;;;;5079424;28;20042;-52
2022/09/06 03:29:11;;;;;;;12.07;10.43;;;19.30;89.90;;;;;;5078741;28;20564;-53
2022/09/06 03:31:57;;;;;;;12.65;10.32;;;19.20;90.10;;;;;;5074002;28;20032;-53
2022/09/06 03:34:43;;;;;;;11.02;9.98;;;19.20;90.20;;;;;;5091012;28;20032;-50
2022/09/06 03:37:29;;;;;;;13.57;9.70;;;19.20;90.30;;;;;;5092956;28;20020;-52
2022/09/06 03:40:15;;;;;;;11.50;10.07;;;19.10;90.40;;;;;;5053183;28;20039;-53
2022/09/06 03:43:01;;;;;;;10.40;9.32;;;19.10;90.50;;;;;;5059079;28;20558;-52
2022/09/06 03:45:49;;;;;;;10.35;9.27;;;19.00;90.50;;;;;;5078490;28;20113;-56
2022/09/06 03:48:35;;;;;;;11.60;10.23;;;19.10;90.60;;;;;;5079811;28;20044;-51
2022/09/06 03:51:21;;;;;;;11.02;9.93;;;19.10;90.70;;;;;;5072714;28;20098;-52
2022/09/06 03:54:07;;;;;;;15.30;9.63;;;19.10;90.80;;;;;;5089104;28;20064;-52
2022/09/06 03:56:53;;;;;;;12.10;9.48;;;19.20;90.60;;;;;;5092348;28;20069;-50
2022/09/06 03:59:39;;;;;;;12.43;9.68;;;19.20;90.60;;;;;;5072550;28;20737;-51
2022/09/06 04:02:25;;;;;;;10.65;9.50;;;19.20;90.70;;;;;;5069755;28;20025;-51
2022/09/06 04:05:12;;;;;;;11.10;10.10;;;19.30;90.50;;;;;;5072879;28;20155;-53
2022/09/06 04:07:58;;;;;;;10.98;9.45;;;19.20;90.40;;;;;;5058286;28;20024;-51
2022/09/06 04:10:44;;;;;;;10.75;9.65;;;19.20;90.40;;;;;;5075845;28;20036;-55
2022/09/06 04:13:31;;;;;;;13.88;10.75;;;19.10;90.50;;;;;;5065184;28;20076;-55
2022/09/06 04:16:17;;;;;;;10.48;9.48;;;18.90;90.70;;;;;;5073029;28;20021;-52
2022/09/06 04:19:03;;;;;;;12.65;10.48;;;19.00;90.80;;;;;;5085924;28;20407;-52
2022/09/06 04:21:49;;;;;;;17.45;14.75;;;18.80;90.90;;;;;;5077960;28;20024;-52
2022/09/06 04:24:35;;;;;;;12.18;10.43;;;18.80;91.10;;;;;;5075364;28;20554;-49
2022/09/06 04:27:21;;;;;;;11.50;10.30;;;18.70;91.10;;;;;;5073486;28;20033;-50
2022/09/06 04:30:07;;;;;;;14.57;10.02;;;18.70;91.20;;;;;;5073278;28;20043;-54
2022/09/06 04:32:53;;;;;;;11.20;10.02;;;18.70;91.30;;;;;;5083137;28;20119;-53
2022/09/06 04:35:39;;;;;;;10.88;9.80;;;18.70;91.30;;;;;;5084275;28;20036;-50
2022/09/06 04:38:27;;;;;;;11.32;10.23;;;18.80;91.30;;;;;;5098444;28;20067;-50
2022/09/06 04:41:16;;;;;;;10.90;9.80;;;18.80;91.30;;;;;;5081549;28;20024;-49
2022/09/06 04:44:02;;;;;;;13.57;10.60;;;18.90;91.20;;;;;;5074301;28;20025;-55
2022/09/06 04:46:48;;;;;;;13.05;10.60;;;18.80;91.20;;;;;;5063163;28;20029;-55
2022/09/06 04:49:34;;;;;;;14.25;10.55;;;18.70;91.50;;;;;;5091946;28;20428;-51
2022/09/06 04:52:20;;;;;;;17.30;11.25;;;18.60;91.50;;;;;;5067602;28;20032;-53
2022/09/06 04:55:06;;;;;;;14.13;11.27;;;18.60;91.60;;;;;;5071560;28;20116;-54
2022/09/06 04:57:53;;;;;;;13.10;11.82;;;18.50;91.70;;;;;;5062466;28;20038;-52
2022/09/06 05:00:41;;;;;;;11.35;10.35;;;18.50;91.60;;;;;;5090376;28;20392;-51
2022/09/06 05:03:27;;;;;;;11.68;9.88;;;18.40;91.70;;;;;;5092397;28;20492;-51
2022/09/06 05:06:17;;;;;;;12.18;9.85;;;18.50;91.60;;;;;;5081935;28;20070;-54
2022/09/06 05:09:03;;;;;;;10.63;9.65;;;18.60;91.50;;;;;;5071587;28;20623;-52
2022/09/06 05:11:49;;;;;;;14.20;10.00;;;18.60;91.20;;;;;;5084184;28;20032;-50
2022/09/06 05:14:35;;;;;;;11.48;9.55;;;18.60;91.20;;;;;;5091206;28;20396;-55
2022/09/06 05:17:21;;;;;;;12.35;10.23;;;18.60;91.20;;;;;;5059876;28;20526;-53
2022/09/06 05:20:08;;;;;;;13.07;10.63;;;18.70;91.00;;;;;;5071370;28;20032;-54
2022/09/06 05:22:54;;;;;;;12.02;9.82;;;18.70;91.10;;;;;;5036941;28;20468;-55
2022/09/06 05:25:40;;;;;;;17.80;10.65;;;18.80;91.10;;;;;;5041459;28;20044;-52
2022/09/06 05:28:26;;;;;;;12.38;9.38;;;18.90;91.00;;;;;;5090791;28;20508;-52
2022/09/06 05:31:30;;;;;;;15.48;10.02;;;18.90;90.90;;;;;;5083470;28;20476;-52
2022/09/06 05:34:16;;;;;;;14.07;10.15;;;18.90;90.80;;;;;;5070954;28;20111;-53
2022/09/06 05:37:02;;;;;;;14.27;10.43;;;18.80;90.80;;;;;;5067545;28;20116;-55
2022/09/06 05:39:48;;;;;;;15.35;9.60;;;18.70;90.90;;;;;;5055905;28;20037;-51
2022/09/06 05:42:34;;;;;;;14.55;10.48;;;18.70;91.10;;;;;;5068901;28;20017;-53
2022/09/06 05:45:20;;;;;;;13.88;9.88;;;18.70;91.10;;;;;;5055808;28;20071;-55
2022/09/06 05:48:07;;;;;;;10.18;9.20;;;18.60;91.10;;;;;;5050330;28;20037;-54
2022/09/06 05:51:13;;;;;;;12.88;10.55;;;18.70;91.00;;;;;;5070778;28;20028;-55
2022/09/06 05:53:59;;;;;;;14.35;10.57;;;18.60;91.10;;;;;;5045457;28;20119;-53
2022/09/06 05:56:45;;;;;;;14.20;9.98;;;18.50;91.30;;;;;;5090330;28;20107;-50
2022/09/06 05:59:31;;;;;;;10.20;9.23;;;18.60;91.30;;;;;;5060331;28;20024;-55
2022/09/06 06:02:18;;;;;;;10.70;9.60;;;18.70;91.20;;;;;;5053420;28;20492;-50
2022/09/06 06:05:05;;;;;;;10.70;9.50;;;18.70;91.10;;;;;;5070799;28;20036;-51
2022/09/06 06:07:51;;;;;;;11.07;9.40;;;18.80;91.00;;;;;;5074037;28;20119;-54
2022/09/06 06:10:38;;;;;;;10.18;9.10;;;18.80;91.00;;;;;;5074671;28;20024;-54
2022/09/06 06:13:24;;;;;;;12.25;11.02;;;18.90;91.10;;;;;;5088199;28;20457;-47
2022/09/06 06:16:13;;;;;;;11.32;9.90;;;18.90;90.90;;;;;;5065175;28;20032;-48
2022/09/06 06:18:59;;;;;;;11.30;9.82;;;18.90;90.90;;;;;;5070321;28;20020;-50
2022/09/06 06:21:45;;;;;;;11.57;10.27;;;18.90;90.90;;;;;;5071162;28;20033;-52
2022/09/06 06:24:31;;;;;;;11.48;9.88;;;18.90;90.90;;;;;;5069705;28;20028;-52
2022/09/06 06:27:17;;;;;;;12.43;10.15;;;18.80;91.00;;;;;;5078286;28;20101;-55
2022/09/06 06:30:03;;;;;;;11.00;9.93;;;18.80;91.10;;;;;;5069552;28;20032;-52
2022/09/06 06:32:49;;;;;;;13.80;9.45;;;18.90;91.10;;;;;;5065931;28;20602;-51
2022/09/06 06:35:35;;;;;;;30.70;11.70;;;19.00;91.00;;;;;;5069290;28;20166;-52
2022/09/06 06:38:21;;;;;;;13.68;10.85;;;19.10;90.90;;;;;;5070034;28;20028;-47
2022/09/06 06:41:09;;;;;;;12.40;9.63;;;19.20;90.80;;;;;;5067039;28;20389;-50
2022/09/06 06:43:58;;;;;;;11.38;10.10;;;19.20;90.80;;;;;;5052037;28;20108;-50
2022/09/06 06:46:44;;;;;;;13.25;10.23;;;19.30;90.60;;;;;;5070138;28;20408;-55
2022/09/06 06:49:30;;;;;;;23.55;11.45;;;19.30;90.70;;;;;;5081521;28;20404;-52
2022/09/06 06:52:16;;;;;;;13.43;9.75;;;19.40;90.40;;;;;;5069727;28;20029;-54
2022/09/06 06:55:04;;;;;;;13.35;10.32;;;19.40;90.50;;;;;;5069746;28;20075;-52
2022/09/06 06:57:50;;;;;;;10.25;9.25;;;19.60;90.30;;;;;;5069782;28;20082;-50
2022/09/06 07:00:36;;;;;;;11.65;9.50;;;19.70;90.20;;;;;;5070133;28;20025;-49
2022/09/06 07:03:22;;;;;;;12.02;10.50;;;19.80;90.10;;;;;;5041521;28;20403;-49
2022/09/06 07:06:08;;;;;;;12.23;10.30;;;19.90;90.00;;;;;;5055431;28;20024;-48
2022/09/06 07:08:58;;;;;;;17.35;12.18;;;19.90;89.70;;;;;;5056114;28;20503;-48
2022/09/06 07:11:45;;;;;;;13.25;10.27;;;19.70;90.30;;;;;;5075419;28;20029;-47
2022/09/06 07:14:31;;;;;;;30.77;13.23;;;19.60;90.30;;;;;;5049318;28;20032;-54
2022/09/06 07:17:17;;;;;;;23.73;13.50;;;19.40;90.50;;;;;;5070669;28;20447;-52
2022/09/06 07:20:03;;;;;;;12.45;10.48;;;19.50;90.70;;;;;;5053155;28;20719;-49
2022/09/06 07:23:04;;;;;;;12.60;9.70;;;19.40;90.60;;;;;;5050726;28;20061;-56
2022/09/06 07:25:50;;;;;;;12.35;9.73;;;19.50;90.60;;;;;;5076750;28;20032;-51
2022/09/06 07:28:36;;;;;;;15.75;10.48;;;19.70;90.40;;;;;;5047177;28;20113;-50
2022/09/06 07:31:22;;;;;;;14.38;10.40;;;19.70;90.30;;;;;;5056033;28;20028;-53
2022/09/06 07:34:08;;;;;;;11.50;10.35;;;19.40;90.20;;;;;;5073102;28;20032;-57
2022/09/06 07:36:55;;;;;;;14.70;10.63;;;19.30;90.60;;;;;;5070809;28;20071;-57
2022/09/06 07:39:41;;;;;;;10.73;9.60;;;19.10;90.70;;;;;;5069251;28;20028;-52
2022/09/06 07:42:27;;;;;;;12.35;10.40;;;19.10;90.80;;;;;;5068704;28;20389;-51
2022/09/06 07:45:13;;;;;;;12.73;10.05;;;19.00;91.00;;;;;;5088063;28;20580;-50
2022/09/06 07:47:59;;;;;;;10.60;9.57;;;19.00;91.10;;;;;;5072692;28;20515;-58
2022/09/06 07:50:47;;;;;;;11.93;10.38;;;19.20;91.00;;;;;;5069333;28;20091;-55
2022/09/06 07:53:34;;;;;;;11.93;9.80;;;19.40;90.70;;;;;;5069152;28;20037;-51
2022/09/06 07:56:21;;;;;;;13.35;10.20;;;19.40;90.60;;;;;;5064908;28;20382;-52
2022/09/06 07:59:08;;;;;;;13.10;10.45;;;19.50;90.50;;;;;;5071034;28;20659;-53
2022/09/06 08:01:54;;;;;;;14.98;11.10;;;19.60;90.30;;;;;;5054495;28;20021;-51
2022/09/06 08:04:40;;;;;;;15.35;11.55;;;19.50;90.10;;;;;;5037603;28;20420;-54
2022/09/06 08:07:26;;;;;;;12.10;10.90;;;19.60;90.40;;;;;;5078361;28;20169;-54
2022/09/06 08:10:13;;;;;;;15.45;11.90;;;19.80;90.00;;;;;;5070698;28;20041;-54
2022/09/06 08:12:59;;;;;;;11.63;10.35;;;19.80;89.70;;;;;;5052996;28;20029;-53
2022/09/06 08:15:44;;;;;;;12.70;9.05;;;19.90;89.70;;;;;;5061120;28;20136;-52
2022/09/06 08:18:31;;;;;;;11.85;9.93;;;20.20;89.50;;;;;;5055003;28;20036;-56
2022/09/06 08:21:17;;;;;;;14.88;9.75;;;20.30;88.80;;;;;;5074673;28;20025;-50
2022/09/06 08:24:05;;;;;;;13.05;9.30;;;20.40;88.60;;;;;;5072565;28;20069;-54
2022/09/06 08:26:51;;;;;;;12.52;10.18;;;20.40;88.10;;;;;;5075102;28;20434;-55
2022/09/06 08:29:38;;;;;;;12.00;9.05;;;20.50;87.70;;;;;;5082228;28;20039;-54
2022/09/06 08:32:25;;;;;;;12.07;9.60;;;20.50;87.20;;;;;;5091092;28;20028;-55
2022/09/06 08:35:11;;;;;;;13.68;9.23;;;20.40;87.60;;;;;;5078160;28;20508;-56
2022/09/06 08:37:57;;;;;;;11.52;9.68;;;20.30;87.90;;;;;;5071883;28;20025;-56
2022/09/06 08:40:43;;;;;;;23.25;12.50;;;20.30;88.10;;;;;;5071053;28;20029;-55
2022/09/06 08:43:29;;;;;;;11.88;10.45;;;20.50;87.90;;;;;;5071928;28;20493;-55
2022/09/06 08:46:18;;;;;;;15.55;9.77;;;20.60;88.00;;;;;;5072001;28;20081;-52
2022/09/06 08:49:05;;;;;;;11.63;9.73;;;20.70;87.70;;;;;;5072501;28;20013;-52
2022/09/06 08:52:01;;;;;;;10.38;9.38;;;20.80;87.10;;;;;;5071650;28;20412;-54
2022/09/06 08:55:06;;;;;;;10.95;9.85;;;20.80;87.00;;;;;;5071970;28;20043;-54
2022/09/06 08:58:08;;;;;;;10.75;9.40;;;20.90;86.40;;;;;;5072430;28;20028;-58
2022/09/06 09:01:18;;;;;;;14.10;9.50;;;21.20;86.00;;;;;;5071797;28;20027;-55
2022/09/06 09:04:11;;;;;;;13.32;9.90;;;21.50;85.60;;;;;;5071065;28;20028;-54
2022/09/06 09:07:06;;;;;;;13.60;9.40;;;21.50;85.40;;;;;;5073256;28;20029;-55
2022/09/06 09:09:54;;;;;;;14.57;11.63;;;21.70;85.40;;;;;;5050927;28;20071;-54
2022/09/06 09:12:45;;;;;;;11.80;10.30;;;21.90;85.10;;;;;;5050536;28;20589;-53
2022/09/06 09:15:35;;;;;;;13.35;9.98;;;21.90;85.10;;;;;;5051345;28;20512;-52
2022/09/06 09:18:25;;;;;;;12.77;10.73;;;21.90;84.90;;;;;;5051611;28;20489;-57
2022/09/06 09:21:14;;;;;;;11.80;10.60;;;21.90;84.80;;;;;;5050880;28;20051;-52
2022/09/06 09:24:08;;;;;;;23.95;10.63;;;21.90;85.30;;;;;;5051277;28;20029;-55
2022/09/06 09:27:01;;;;;;;13.40;9.77;;;21.90;85.20;;;;;;5051476;28;20094;-54
2022/09/06 09:29:53;;;;;;;12.50;9.80;;;22.00;85.40;;;;;;5057569;28;20509;-53
2022/09/06 09:32:43;;;;;;;11.00;9.07;;;22.10;85.50;;;;;;5064517;28;20484;-52
2022/09/06 09:35:40;;;;;;;12.95;9.70;;;22.30;85.20;;;;;;5069871;28;20043;-53
2022/09/06 09:38:32;;;;;;;14.02;10.13;;;22.50;84.70;;;;;;5069346;28;20020;-53
2022/09/06 09:41:33;;;;;;;28.13;10.15;;;22.60;84.00;;;;;;5036271;28;20029;-53
2022/09/06 09:44:20;;;;;;;40.35;11.40;;;22.70;84.10;;;;;;5050521;28;20025;-52
2022/09/06 09:47:27;;;;;;;12.18;9.25;;;22.70;84.00;;;;;;5050573;28;20108;-53
2022/09/06 09:50:26;;;;;;;12.77;9.77;;;22.70;84.10;;;;;;5073839;28;20101;-56
2022/09/06 09:53:16;;;;;;;10.60;9.50;;;22.70;84.40;;;;;;5053988;28;20033;-51
2022/09/06 09:56:02;;;;;;;10.85;8.73;;;22.70;84.60;;;;;;5068694;28;20204;-48
2022/09/06 09:58:48;;;;;;;12.63;8.68;;;22.90;84.70;;;;;;5069448;28;20092;-54
2022/09/06 10:01:37;;;;;;;10.65;8.50;;;23.00;84.40;;;;;;5063048;28;20025;-55
2022/09/06 10:04:43;;;;;;;12.77;8.88;;;23.20;83.80;;;;;;5059899;28;20489;-56
2022/09/06 10:07:31;;;;;;;12.90;9.38;;;23.30;83.80;;;;;;5073643;28;20366;-51
2022/09/06 10:10:22;;;;;;;10.30;8.80;;;23.50;83.30;;;;;;5058108;28;20024;-55
2022/09/06 10:13:29;;;;;;;17.42;10.02;;;23.30;83.60;;;;;;5059531;28;20020;-54
2022/09/06 10:16:15;;;;;;;10.43;9.20;;;23.40;84.10;;;;;;5071814;28;20040;-54
2022/09/06 10:19:32;;;;;;;10.05;8.52;;;23.60;84.00;;;;;;5047503;28;20115;-52
2022/09/06 10:22:24;;;;;;;13.55;9.30;;;23.90;83.40;;;;;;5075660;28;20031;-55
2022/09/06 10:25:39;;;;;;;9.80;8.90;;;24.10;82.80;;;;;;5074166;28;20020;-53
2022/09/06 10:28:42;;;;;;;9.43;8.52;;;24.30;82.10;;;;;;5086320;28;20096;-54
2022/09/06 10:31:56;;;;;;;10.52;8.15;;;24.50;82.10;;;;;;5072524;28;20119;-53
2022/09/06 10:35:09;;;;;;;;;;;;;;;;;;;;;
2022/09/06 10:38:23;;;;;;;11.38;8.57;;;24.80;81.20;;;;;;5067863;28;20107;-52
2022/09/06 10:41:15;;;;;;;12.48;9.15;;;24.70;81.20;;;;;;5076420;28;20063;-55
2022/09/06 10:44:19;;;;;;;9.52;8.40;;;24.70;81.60;;;;;;5068445;28;20024;-53
2022/09/06 10:47:10;;;;;;;11.57;7.97;;;24.60;81.60;;;;;;5072105;28;20038;-51
2022/09/06 10:49:59;;;;;;;13.88;8.57;;;24.50;81.80;;;;;;5074786;28;20031;-55
2022/09/06 10:52:47;;;;;;;8.63;7.80;;;24.60;81.60;;;;;;5050522;28;20054;-55
2022/09/06 10:55:33;;;;;;;9.77;8.52;;;24.60;81.50;;;;;;5056515;28;20058;-52
2022/09/06 10:58:27;;;;;;;10.07;8.10;;;24.80;81.40;;;;;;5091475;28;20034;-52
2022/09/06 11:01:23;;;;;;;11.52;8.82;;;25.00;80.90;;;;;;5079958;28;20615;-58
2022/09/06 11:04:19;;;;;;;11.38;8.48;;;25.00;80.80;;;;;;5070427;28;20108;-66
2022/09/06 11:07:25;;;;;;;11.18;7.90;;;25.10;80.80;;;;;;5073250;28;20043;-54
2022/09/06 11:10:26;;;;;;;9.88;8.48;;;25.00;80.90;;;;;;5076591;28;20566;-51
2022/09/06 11:13:16;;;;;;;9.57;8.50;;;25.00;81.00;;;;;;5076483;28;20020;-48
2022/09/06 11:16:20;;;;;;;13.90;9.75;;;24.90;81.30;;;;;;5076637;28;20534;-54
2022/09/06 11:19:18;;;;;;;9.05;8.02;;;24.80;81.60;;;;;;5058420;28;20060;-53
2022/09/06 11:22:23;;;;;;;15.95;8.32;;;24.80;81.90;;;;;;5077788;28;20499;-51
2022/09/06 11:25:34;;;;;;;11.23;8.50;;;24.70;82.00;;;;;;5059216;28;20487;-55
2022/09/06 11:28:36;;;;;;;10.45;8.32;;;24.60;82.20;;;;;;5069642;28;20040;-54
2022/09/06 11:31:28;;;;;;;13.65;8.95;;;24.60;82.40;;;;;;5078593;28;20024;-54
2022/09/06 11:34:32;;;;;;;18.10;9.63;;;24.60;82.50;;;;;;5076042;28;20069;-53
2022/09/06 11:37:41;;;;;;;10.60;8.40;;;24.70;82.40;;;;;;5057881;28;20029;-53
2022/09/06 11:40:40;;;;;;;10.93;8.70;;;24.80;82.20;;;;;;5073647;28;20032;-51
2022/09/06 11:43:50;;;;;;;10.45;9.35;;;24.80;82.20;;;;;;5092450;28;20613;-53
2022/09/06 11:46:39;;;;;;;14.95;9.43;;;24.90;83.20;;;;;;5068482;28;20039;-54
2022/09/06 11:49:34;;;;;;;11.48;9.52;;;24.60;84.20;;;;;;5075052;28;20025;-55
2022/09/06 11:52:54;;;;;;;17.40;10.82;;;24.50;84.30;;;;;;5012096;28;20041;-52
2022/09/06 11:55:45;;;;;;;17.42;9.77;;;24.50;84.30;;;;;;5067099;28;20032;-49
2022/09/06 11:58:40;;;;;;;11.05;9.88;;;24.50;84.70;;;;;;5093658;28;20024;-53
2022/09/06 12:01:26;;;;;;;14.35;10.75;;;24.50;84.60;;;;;;5078809;28;20635;-53
2022/09/06 12:04:12;;;;;;;15.00;9.65;;;24.60;84.50;;;;;;5073187;28;20021;-51
2022/09/06 12:07:09;;;;;;;12.02;9.38;;;24.70;84.20;;;;;;5089524;28;20066;-51
2022/09/06 12:09:55;;;;;;;10.63;9.65;;;24.80;84.10;;;;;;5058162;28;20622;-51
2022/09/06 12:12:49;;;;;;;15.15;10.55;;;24.80;84.10;;;;;;5072503;28;20037;-50
2022/09/06 12:15:52;;;;;;;10.48;9.40;;;24.70;84.20;;;;;;5076837;28;20103;-54
2022/09/06 12:18:47;;;;;;;13.95;9.85;;;24.80;84.30;;;;;;5078934;28;20020;-49
2022/09/06 12:21:36;;;;;;;10.65;9.50;;;24.80;84.10;;;;;;5079889;28;20027;-51
2022/09/06 12:24:34;;;;;;;11.65;10.05;;;25.00;84.00;;;;;;5073138;28;20033;-49
2022/09/06 12:27:25;;;;;;;12.23;9.40;;;25.00;84.20;;;;;;5090509;28;20471;-50
2022/09/06 12:30:28;;;;;;;14.13;10.10;;;25.00;83.90;;;;;;5079710;28;20032;-56
2022/09/06 12:33:24;;;;;;;11.05;9.70;;;24.90;84.10;;;;;;5057464;28;20037;-59
2022/09/06 12:36:18;;;;;;;11.02;9.88;;;24.80;84.20;;;;;;5071501;28;20048;-58
2022/09/06 12:39:10;;;;;;;11.75;10.52;;;24.90;84.30;;;;;;5077214;28;20438;-59
2022/09/06 12:42:01;;;;;;;15.55;11.43;;;25.10;84.20;;;;;;5091156;28;20432;-58
2022/09/06 12:44:50;;;;;;;11.13;10.02;;;25.50;83.60;;;;;;5081586;28;20412;-58
2022/09/06 12:47:38;;;;;;;11.00;9.70;;;25.90;82.80;;;;;;5072210;28;20032;-57
2022/09/06 12:50:25;;;;;;;10.30;9.20;;;26.20;81.70;;;;;;5086772;28;20064;-54
2022/09/06 12:53:23;;;;;;;11.70;8.75;;;26.50;81.00;;;;;;5077556;28;20446;-57
2022/09/06 12:56:13;;;;;;;12.57;8.90;;;26.60;80.40;;;;;;5051542;28;20108;-59
2022/09/06 12:59:13;;;;;;;8.80;7.65;;;26.70;80.00;;;;;;5057997;28;20074;-57
2022/09/06 13:02:12;;;;;;;10.38;8.13;;;26.90;79.30;;;;;;5077419;28;20062;-56
2022/09/06 13:05:05;;;;;;;11.23;7.03;;;27.00;79.00;;;;;;5080681;28;20032;-61
2022/09/06 13:07:55;;;;;;;8.05;6.80;;;27.00;78.20;;;;;;5072937;28;20155;-57
2022/09/06 13:10:44;;;;;;;7.22;6.53;;;27.20;77.70;;;;;;5087073;28;20478;-57
2022/09/06 13:13:30;;;;;;;7.60;6.00;;;27.40;77.50;;;;;;5091393;28;20111;-59
2022/09/06 13:16:29;;;;;;;7.90;5.68;;;27.60;76.90;;;;;;5071674;28;20033;-60
2022/09/06 13:19:38;;;;;;;5.55;4.68;;;27.80;76.00;;;;;;5074159;28;20048;-59
2022/09/06 13:22:43;;;;;;;5.07;4.45;;;27.90;75.00;;;;;;5090896;28;20088;-59
2022/09/06 13:25:29;;;;;;;4.78;3.60;;;28.10;73.70;;;;;;5036961;28;20033;-58
2022/09/06 13:28:30;;;;;;;14.82;5.25;;;28.10;73.50;;;;;;5044863;28;20024;-58
2022/09/06 13:31:16;;;;;;;8.15;4.47;;;28.10;72.80;;;;;;5089970;28;20024;-58
2022/09/06 13:34:02;;;;;;;5.10;4.35;;;28.10;73.20;;;;;;5066732;28;20028;-58
2022/09/06 13:36:51;;;;;;;7.22;4.28;;;28.30;73.20;;;;;;5071301;28;20032;-58
2022/09/06 13:39:39;;;;;;;4.97;3.40;;;28.50;72.80;;;;;;5085140;28;20020;-59
2022/09/06 13:42:28;;;;;;;15.85;5.45;;;28.60;72.00;;;;;;5076074;28;20102;-56
2022/09/06 13:45:26;;;;;;;4.95;3.20;;;28.50;72.00;;;;;;5071341;28;20059;-58
2022/09/06 13:48:12;;;;;;;3.30;3.00;;;28.40;71.00;;;;;;5071734;28;20558;-51
2022/09/06 13:50:58;;;;;;;5.95;2.80;;;28.00;70.80;;;;;;5050739;28;20033;-55
2022/09/06 13:53:44;;;;;;;4.78;3.40;;;27.60;71.20;;;;;;5060617;28;20028;-55
2022/09/06 13:56:30;;;;;;;5.25;3.70;;;27.30;72.30;;;;;;5083536;28;20041;-55
2022/09/06 13:59:18;;;;;;;4.75;4.35;;;27.10;72.80;;;;;;5088881;28;20044;-58
2022/09/06 14:02:10;;;;;;;7.32;5.72;;;26.80;73.20;;;;;;5084511;28;20369;-59
2022/09/06 14:04:56;;;;;;;7.65;3.55;;;26.70;72.80;;;;;;5078985;28;20584;-52
2022/09/06 14:07:43;;;;;;;8.18;2.78;;;26.90;72.80;;;;;;5081917;28;20024;-59
2022/09/06 14:10:29;;;;;;;5.57;2.83;;;27.20;71.80;;;;;;5075907;28;20484;-54
2022/09/06 14:13:16;;;;;;;3.47;3.05;;;27.60;71.40;;;;;;5069752;28;20064;-54
2022/09/06 14:16:04;;;;;;;5.65;3.50;;;27.80;71.00;;;;;;5069837;28;20036;-59
2022/09/06 14:18:50;;;;;;;4.07;3.08;;;28.10;71.50;;;;;;5076020;28;20073;-53
2022/09/06 14:21:36;;;;;;;11.30;3.78;;;28.10;71.50;;;;;;5083777;28;20024;-57
2022/09/06 14:24:22;;;;;;;4.90;2.92;;;27.90;70.90;;;;;;5070164;28;20024;-57
2022/09/06 14:27:09;;;;;;;5.53;3.20;;;27.90;71.00;;;;;;5078661;28;20115;-56
2022/09/06 14:29:55;;;;;;;2.97;2.67;;;28.00;70.80;;;;;;5079050;28;20107;-57
2022/09/06 14:32:40;;;;;;;3.60;2.97;;;28.00;70.30;;;;;;5088852;28;20111;-56
2022/09/06 14:35:27;;;;;;;3.75;3.35;;;27.90;70.40;;;;;;5075194;28;20043;-59
2022/09/06 14:38:13;;;;;;;9.82;5.88;;;27.70;70.90;;;;;;5069390;28;20032;-56